Time;durP1;ratioP1;P1;durP2;ratioP2;P2;SDS_P1;SDS_P2;PMS_P1;PMS_P2;Temp;Humidity;BMP_temperature;BMP_pressure;BME280_temperature;BME280_humidity;BME280_pressure;Samples;Min_cycle;Max_cycle;Signal;HPM_P1;HPM_P2
2022/10/18 00:01:01;;;;;;;18.73;9.68;;;;;;;4.86;100.00;99274.41;5065866;28;20028;-75
2022/10/18 00:03:26;;;;;;;17.75;10.02;;;;;;;4.70;100.00;99260.44;5073285;28;20027;-76
2022/10/18 00:05:52;;;;;;;22.75;10.50;;;;;;;4.68;100.00;99278.09;5065486;28;20032;-76
2022/10/18 00:08:18;;;;;;;20.80;9.60;;;;;;;4.59;100.00;99262.31;5090344;28;20032;-76
2022/10/18 00:10:44;;;;;;;23.13;10.18;;;;;;;4.60;100.00;99257.91;5073430;28;20040;-77
2022/10/18 00:13:10;;;;;;;19.05;10.40;;;;;;;4.46;100.00;99265.97;5060376;28;20036;-76
2022/10/18 00:15:35;;;;;;;22.25;11.10;;;;;;;4.40;100.00;99263.38;5074262;28;20035;-75
2022/10/18 00:18:01;;;;;;;18.10;9.73;;;;;;;4.42;100.00;99260.72;5073265;28;20046;-75
2022/10/18 00:20:27;;;;;;;21.75;10.25;;;;;;;4.37;100.00;99255.47;5073580;28;20036;-76
2022/10/18 00:22:52;;;;;;;24.38;9.70;;;;;;;4.34;100.00;99250.19;5073214;28;20162;-76
2022/10/18 00:25:18;;;;;;;20.73;9.82;;;;;;;4.31;100.00;99255.53;5067863;28;20036;-75
2022/10/18 00:27:44;;;;;;;18.00;9.38;;;;;;;4.39;100.00;99266.94;5078234;28;20039;-75
2022/10/18 00:30:10;;;;;;;18.77;9.77;;;;;;;4.38;100.00;99263.41;5057496;28;20525;-76
2022/10/18 00:32:36;;;;;;;21.08;10.07;;;;;;;4.28;100.00;99252.91;5072283;28;20568;-76
2022/10/18 00:35:03;;;;;;;21.25;9.77;;;;;;;4.28;100.00;99252.91;5064419;28;20078;-75
2022/10/18 00:37:28;;;;;;;20.05;9.60;;;;;;;4.31;100.00;99260.81;5056772;28;20027;-77
2022/10/18 00:39:54;;;;;;;18.27;9.70;;;;;;;4.33;100.00;99249.34;5089429;28;20016;-75
2022/10/18 00:42:21;;;;;;;19.38;9.10;;;;;;;4.40;100.00;99255.44;5072865;28;20131;-76
2022/10/18 00:44:49;;;;;;;18.38;9.55;;;;;;;4.40;100.00;99258.09;5072209;28;20372;-76
2022/10/18 00:47:16;;;;;;;18.15;9.45;;;;;;;4.43;100.00;99263.34;5069700;28;20025;-75
2022/10/18 00:49:51;;;;;;;18.15;9.85;;;;;;;4.53;100.00;99261.50;5053021;28;20032;-75
2022/10/18 00:52:35;;;;;;;19.67;9.52;;;;;;;4.48;100.00;99247.41;5052910;28;20181;-76
2022/10/18 00:55:01;;;;;;;20.90;10.75;;;;;;;4.39;100.00;99251.06;5052748;28;20392;-76
2022/10/18 00:57:27;;;;;;;25.58;11.90;;;;;;;4.30;100.00;99251.16;5083899;28;20027;-77
2022/10/18 00:59:53;;;;;;;21.90;11.52;;;;;;;4.22;100.00;99250.31;5063311;28;20025;-75
2022/10/18 01:02:19;;;;;;;21.48;9.68;;;;;;;4.11;100.00;99242.50;5067140;28;20480;-76
2022/10/18 01:04:45;;;;;;;24.50;10.20;;;;;;;4.08;100.00;99246.94;5057363;28;20047;-76
2022/10/18 01:07:18;;;;;;;17.20;10.00;;;;;;;3.97;100.00;99246.16;5089550;28;20024;-76
2022/10/18 01:09:46;;;;;;;25.65;11.00;;;;;;;3.97;100.00;99244.38;5063216;28;20048;-76
2022/10/18 01:12:51;;;;;;;19.98;10.23;;;;;;;4.06;100.00;99251.38;5080953;28;20028;-77
2022/10/18 01:15:32;;;;;;;17.90;9.52;;;;;;;3.96;100.00;99249.69;5065957;28;20040;-77
2022/10/18 01:18:12;;;;;;;21.67;10.10;;;;;;;3.82;100.00;99234.78;5089270;28;20032;-76
2022/10/18 01:20:52;;;;;;;17.15;9.45;;;;;;;3.89;100.00;99237.38;5073158;28;20035;-75
2022/10/18 01:23:32;;;;;;;21.02;9.38;;;;;;;3.80;100.00;99233.94;5069206;28;20039;-75
2022/10/18 01:26:37;;;;;;;20.13;8.52;;;;;;;3.72;100.00;99224.31;5068662;28;20479;-75
2022/10/18 01:29:27;;;;;;;18.77;8.77;;;;;;;3.72;100.00;99233.09;5089147;28;20457;-75
2022/10/18 01:31:58;;;;;;;15.85;8.23;;;;;;;3.73;100.00;99229.56;5090366;28;20089;-76
2022/10/18 01:34:25;;;;;;;15.23;8.27;;;;;;;3.79;100.00;99239.22;5072428;28;20044;-75
2022/10/18 01:36:52;;;;;;;21.00;8.40;;;;;;;3.70;100.00;99232.25;5072256;28;20480;-76
2022/10/18 01:39:35;;;;;;;19.75;9.05;;;;;;;3.66;100.00;99221.72;5067782;28;20048;-76
2022/10/18 01:42:05;;;;;;;16.20;7.82;;;;;;;3.78;100.00;99226.91;5052164;28;20059;-76
2022/10/18 01:44:32;;;;;;;18.98;7.90;;;;;;;3.61;100.00;99208.50;5069275;28;20115;-76
2022/10/18 01:46:58;;;;;;;19.23;8.52;;;;;;;3.48;100.00;99209.47;5079033;28;20032;-75
2022/10/18 01:49:25;;;;;;;17.30;8.90;;;;;;;3.64;100.00;99232.28;5053210;28;20028;-76
2022/10/18 01:51:50;;;;;;;14.40;8.55;;;;;;;3.69;100.00;99233.13;5052424;28;20033;-75
2022/10/18 01:54:21;;;;;;;20.83;9.32;;;;;;;3.61;100.00;99219.09;5081361;28;20054;-75
2022/10/18 01:56:56;;;;;;;16.42;8.75;;;;;;;3.64;100.00;99228.75;5089209;28;20031;-75
2022/10/18 01:59:46;;;;;;;19.40;9.48;;;;;;;3.67;100.00;99229.63;5072197;28;20020;-75
2022/10/18 02:02:41;;;;;;;21.52;9.63;;;;;;;3.59;100.00;99220.00;5072106;28;20031;-76
2022/10/18 02:05:07;;;;;;;24.45;8.88;;;;;;;3.60;100.00;99227.03;5073722;28;20025;-75
2022/10/18 02:07:43;;;;;;;18.20;8.82;;;;;;;3.49;100.00;99213.00;5070100;28;20024;-75
2022/10/18 02:10:17;;;;;;;17.52;8.75;;;;;;;3.42;100.00;99212.16;5071017;28;20024;-76
2022/10/18 02:12:44;;;;;;;16.58;8.95;;;;;;;3.37;100.00;99215.72;5072191;28;20020;-75
2022/10/18 02:15:12;;;;;;;16.25;9.52;;;;;;;3.30;100.00;99212.25;5071927;28;20107;-76
2022/10/18 02:17:39;;;;;;;17.85;9.77;;;;;;;3.30;100.00;99217.53;5084890;28;20029;-77
2022/10/18 02:20:06;;;;;;;19.80;9.60;;;;;;;3.23;100.00;99213.19;5058965;28;20020;-75
2022/10/18 02:22:32;;;;;;;15.77;8.88;;;;;;;3.16;100.00;99211.47;5072059;28;20115;-76
2022/10/18 02:25:02;;;;;;;17.90;9.55;;;;;;;3.07;100.00;99208.88;5071941;28;20111;-76
2022/10/18 02:27:27;;;;;;;28.90;10.82;;;;;;;3.14;100.00;99229.06;5075324;28;20024;-76
2022/10/18 02:29:53;;;;;;;24.60;10.77;;;;;;;3.10;100.00;99220.31;5070346;28;20029;-76
2022/10/18 02:32:36;;;;;;;24.50;10.63;;;;;;;3.20;100.00;99231.69;5058363;28;20403;-75
2022/10/18 02:35:23;;;;;;;19.38;9.57;;;;;;;3.18;100.00;99231.72;5085979;28;20027;-76
2022/10/18 02:37:49;;;;;;;21.13;10.05;;;;;;;3.28;100.00;99241.34;5085220;28;20453;-76
2022/10/18 02:40:15;;;;;;;20.45;11.15;;;;;;;3.22;100.00;99235.22;5075607;28;20059;-76
2022/10/18 02:42:56;;;;;;;23.13;10.55;;;;;;;3.12;100.00;99234.38;5055295;28;20080;-76
2022/10/18 02:45:22;;;;;;;22.30;11.18;;;;;;;3.07;100.00;99235.31;5092004;28;20023;-77
2022/10/18 02:47:48;;;;;;;19.48;10.50;;;;;;;3.04;100.00;99236.19;5075274;28;20039;-77
2022/10/18 02:50:13;;;;;;;18.70;9.63;;;;;;;3.05;100.00;99231.78;5091888;28;20141;-77
2022/10/18 02:52:39;;;;;;;19.60;9.65;;;;;;;2.96;100.00;99222.13;5075114;28;20038;-76
2022/10/18 02:55:06;;;;;;;18.33;9.00;;;;;;;2.89;100.00;99230.09;5074895;28;20050;-77
2022/10/18 02:57:32;;;;;;;20.17;9.80;;;;;;;2.85;100.00;99228.34;5065206;28;20040;-76
2022/10/18 02:59:57;;;;;;;19.80;9.43;;;;;;;2.85;100.00;99229.25;5071996;28;20025;-76
2022/10/18 03:02:23;;;;;;;17.55;9.10;;;;;;;2.88;100.00;99229.22;5074436;28;20398;-76
2022/10/18 03:04:48;;;;;;;17.38;9.02;;;;;;;2.98;100.00;99233.59;5075031;28;20048;-76
2022/10/18 03:07:14;;;;;;;18.17;8.95;;;;;;;2.96;100.00;99226.53;5074813;28;20089;-77
2022/10/18 03:09:39;;;;;;;17.58;9.15;;;;;;;2.77;100.00;99206.38;5091580;28;20053;-76
2022/10/18 03:12:05;;;;;;;28.45;12.18;;;;;;;2.92;100.00;99219.53;5092565;28;20093;-78
2022/10/18 03:14:31;;;;;;;22.60;10.15;;;;;;;2.89;100.00;99224.81;5083291;28;20076;-76
2022/10/18 03:16:56;;;;;;;26.48;9.52;;;;;;;2.81;100.00;99221.31;5076053;28;20468;-75
2022/10/18 03:19:22;;;;;;;21.02;10.57;;;;;;;2.74;100.00;99223.09;5071264;28;20091;-76
2022/10/18 03:21:47;;;;;;;24.60;11.45;;;;;;;2.81;100.00;99239.81;5076930;28;20087;-76
2022/10/18 03:24:13;;;;;;;18.15;10.00;;;;;;;2.71;100.00;99228.41;5054754;28;20028;-76
2022/10/18 03:26:39;;;;;;;22.20;10.52;;;;;;;2.65;100.00;99229.31;5072247;28;20028;-76
2022/10/18 03:29:04;;;;;;;22.77;10.95;;;;;;;2.77;100.00;99248.66;5071260;28;20036;-76
2022/10/18 03:31:30;;;;;;;23.45;11.55;;;;;;;2.72;100.00;99231.03;5082144;28;20454;-77
2022/10/18 03:33:56;;;;;;;32.42;12.07;;;;;;;2.68;100.00;99226.66;5070844;28;20028;-77
2022/10/18 03:36:22;;;;;;;40.65;15.82;;;;;;;2.73;100.00;99238.09;5054406;28;20024;-80
2022/10/18 03:38:57;;;;;;;36.78;15.30;;;;;;;2.68;100.00;99239.84;5053949;28;20029;-76
2022/10/18 03:41:23;;;;;;;28.42;13.23;;;;;;;2.67;100.00;99239.88;5055260;28;20088;-75
2022/10/18 03:43:50;;;;;;;31.10;13.82;;;;;;;2.62;100.00;99241.63;5087596;28;20474;-76
2022/10/18 03:46:16;;;;;;;24.98;12.98;;;;;;;2.57;100.00;99238.16;5070813;28;20052;-75
2022/10/18 03:48:41;;;;;;;24.38;11.75;;;;;;;2.44;100.00;99239.94;5071881;28;20071;-76
2022/10/18 03:51:07;;;;;;;18.90;10.13;;;;;;;2.52;100.00;99259.28;5065884;28;20036;-76
2022/10/18 03:53:33;;;;;;;26.50;11.23;;;;;;;2.48;100.00;99251.38;5065402;28;20420;-77
2022/10/18 03:55:58;;;;;;;22.00;11.70;;;;;;;2.48;100.00;99246.97;5073813;28;20029;-76
2022/10/18 03:59:17;;;;;;;22.27;11.70;;;;;;;2.35;100.00;99237.31;5070585;28;20033;-78
2022/10/18 04:01:39;;;;;;;24.52;12.07;;;;;;;2.42;100.00;99240.84;5079107;28;20036;-76
2022/10/18 04:04:05;;;;;;;27.58;12.82;;;;;;;2.42;100.00;99239.06;5071650;28;20023;-76
2022/10/18 04:06:31;;;;;;;25.27;12.05;;;;;;;2.52;100.00;99250.50;5070728;28;20036;-76
2022/10/18 04:08:56;;;;;;;54.75;18.65;;;;;;;2.49;100.00;99235.50;5073592;28;20055;-76
2022/10/18 04:11:22;;;;;;;51.63;17.10;;;;;;;2.62;100.00;99253.09;5081329;28;20024;-76
2022/10/18 04:13:47;;;;;;;36.95;14.65;;;;;;;2.67;100.00;99246.06;5053402;28;20561;-77
2022/10/18 04:16:13;;;;;;;41.78;15.32;;;;;;;2.64;100.00;99234.63;5071469;28;20372;-76
2022/10/18 04:18:38;;;;;;;34.72;14.00;;;;;;;2.71;100.00;99242.50;5055814;28;20523;-75
2022/10/18 04:21:04;;;;;;;33.35;14.23;;;;;;;2.74;100.00;99247.75;5064931;28;20104;-76
2022/10/18 04:23:30;;;;;;;31.63;13.27;;;;;;;2.77;100.00;99248.66;5050555;28;20043;-76
2022/10/18 04:25:55;;;;;;;26.10;12.23;;;;;;;2.74;100.00;99231.03;5067336;28;20025;-76
2022/10/18 04:28:21;;;;;;;37.67;14.25;;;;;;;2.65;100.00;99213.44;5053044;28;20039;-76
2022/10/18 04:31:02;;;;;;;37.88;14.75;;;;;;;2.62;100.00;99226.66;5080647;28;20016;-76
2022/10/18 04:33:32;;;;;;;33.63;12.63;;;;;;;2.43;100.00;99187.16;5082611;28;20365;-80
2022/10/18 04:36:24;;;;;;;33.65;12.63;;;;;;;2.38;100.00;99200.34;5070540;28;20105;-80
2022/10/18 04:38:50;;;;;;;30.45;14.38;;;;;;;2.44;100.00;99216.16;5080952;28;20035;-78
2022/10/18 04:41:16;;;;;;;41.88;15.57;;;;;;;2.31;100.00;99208.31;5074186;28;20032;-77
2022/10/18 04:43:41;;;;;;;39.00;17.05;;;;;;;2.33;100.00;99212.69;5071883;28;20484;-76
2022/10/18 04:46:10;;;;;;;41.63;16.52;;;;;;;2.33;100.00;99210.06;5057201;28;20047;-77
2022/10/18 04:48:35;;;;;;;44.50;20.67;;;;;;;2.34;100.00;99218.84;5072748;28;20025;-76
2022/10/18 04:51:01;;;;;;;51.17;22.50;;;;;;;2.27;100.00;99217.09;5089089;28;20027;-76
2022/10/18 04:53:26;;;;;;;60.88;24.52;;;;;;;2.33;100.00;99217.97;5089914;28;20090;-75
2022/10/18 04:55:52;;;;;;;65.20;27.25;;;;;;;2.36;100.00;99228.53;5069267;28;20111;-76
2022/10/18 04:58:18;;;;;;;56.83;25.35;;;;;;;2.36;100.00;99236.44;5076260;28;20028;-77
2022/10/18 05:00:43;;;;;;;50.00;21.60;;;;;;;2.45;100.00;99232.91;5055338;28;20468;-76
2022/10/18 05:03:11;;;;;;;37.78;18.45;;;;;;;2.45;100.00;99227.63;5069434;28;20020;-76
2022/10/18 05:05:37;;;;;;;47.70;17.17;;;;;;;2.48;100.00;99225.84;5069566;28;20020;-76
2022/10/18 05:08:03;;;;;;;36.03;16.20;;;;;;;2.43;100.00;99224.97;5068679;28;20626;-75
2022/10/18 05:10:30;;;;;;;46.95;19.58;;;;;;;2.49;100.00;99229.38;5069476;28;20407;-76
2022/10/18 05:12:56;;;;;;;59.17;18.30;;;;;;;2.57;100.00;99244.31;5069590;28;20034;-77
2022/10/18 05:15:24;;;;;;;48.83;17.48;;;;;;;2.63;100.00;99232.84;5067498;28;20631;-76
2022/10/18 05:17:50;;;;;;;44.70;16.13;;;;;;;2.91;100.00;99242.44;5069307;28;20520;-76
2022/10/18 05:20:16;;;;;;;41.55;15.45;;;;;;;3.02;100.00;99227.38;5087267;28;20122;-76
2022/10/18 05:22:44;;;;;;;27.25;13.23;;;;;;;3.22;100.00;99248.44;5069237;28;20116;-76
2022/10/18 05:25:10;;;;;;;28.23;13.10;;;;;;;3.08;100.00;99231.75;5049725;28;20115;-77
2022/10/18 05:27:35;;;;;;;42.78;13.80;;;;;;;3.02;100.00;99210.63;5081140;28;20119;-77
2022/10/18 05:30:01;;;;;;;30.75;13.18;;;;;;;3.33;100.00;99246.59;5072481;28;20056;-76
2022/10/18 05:32:27;;;;;;;38.05;14.30;;;;;;;4.36;100.00;99286.41;5056862;28;20035;-76
2022/10/18 05:34:52;;;;;;;26.67;14.45;;;;;;;5.51;100.00;99297.41;5079894;28;20028;-76
2022/10/18 05:37:18;;;;;;;57.03;18.83;;;;;;;6.76;100.00;99298.97;5073186;28;20501;-76
2022/10/18 05:39:43;;;;;;;72.38;29.67;;;;;;;8.09;91.10;99294.28;5063160;28;20029;-76
2022/10/18 05:42:09;;;;;;;69.82;31.90;;;;;;;9.29;80.68;99244.88;5068876;28;20080;-76
2022/10/18 05:44:35;;;;;;;81.05;29.25;;;;;;;10.48;74.12;99224.13;5081311;28;20028;-76
2022/10/18 05:47:00;;;;;;;55.58;20.73;;;;;;;11.90;67.72;99197.28;5089047;28;20081;-75
2022/10/18 05:49:26;;;;;;;36.70;19.33;;;;;;;12.91;61.15;99115.00;5089160;28;20035;-74
2022/10/18 05:51:51;;;;;;;44.65;20.23;;;;;;;13.46;58.35;99081.03;5089284;28;20032;-75
2022/10/18 05:54:18;;;;;;;39.88;19.83;;;;;;;13.24;58.39;99042.69;5059098;28;20031;-75
2022/10/18 05:56:43;;;;;;;41.22;19.10;;;;;;;13.86;55.74;99023.41;5052097;28;20024;-76
2022/10/18 05:59:10;;;;;;;43.58;20.73;;;;;;;13.86;55.24;98992.94;5052198;28;20476;-75
2022/10/18 06:01:37;;;;;;;43.63;21.25;;;;;;;13.91;55.46;98989.06;5088198;28;20024;-75
2022/10/18 06:04:03;;;;;;;65.32;22.45;;;;;;;15.25;51.83;98998.75;5093095;28;20036;-75
2022/10/18 06:06:29;;;;;;;68.43;20.60;;;;;;;15.93;50.53;98983.03;5092815;28;20050;-75
2022/10/18 06:08:55;;;;;;;63.47;20.58;;;;;;;15.65;50.13;98946.94;5092941;28;20024;-75
2022/10/18 06:11:22;;;;;;;49.33;19.63;;;;;;;15.77;50.05;98933.66;5092826;28;20024;-76
2022/10/18 06:13:49;;;;;;;41.63;19.85;;;;;;;16.39;49.18;98946.84;5092111;28;20475;-75
2022/10/18 06:16:17;;;;;;;48.25;21.77;;;;;;;16.50;48.78;98928.09;5055825;28;20773;-76
2022/10/18 06:18:45;;;;;;;36.60;18.65;;;;;;;16.74;48.08;98906.75;5074734;28;20129;-76
2022/10/18 06:21:11;;;;;;;55.80;21.85;;;;;;;16.50;48.93;98881.31;5086304;28;20035;-75
2022/10/18 06:23:37;;;;;;;36.72;18.83;;;;;;;16.22;49.03;98877.66;5083660;28;20028;-76
2022/10/18 06:26:05;;;;;;;47.60;19.35;;;;;;;17.21;46.95;98890.09;5092631;28;20051;-77
2022/10/18 06:28:30;;;;;;;40.70;18.58;;;;;;;17.43;46.68;98873.28;5092639;28;20024;-76
2022/10/18 06:30:57;;;;;;;30.80;17.23;;;;;;;16.72;48.45;98869.03;5062996;28;20035;-76
2022/10/18 06:33:23;;;;;;;30.63;16.75;;;;;;;18.11;45.30;98882.94;5055483;28;20020;-75
2022/10/18 06:36:20;;;;;;;44.90;16.92;;;;;;;18.03;45.38;98868.16;5055205;28;20119;-76
2022/10/18 06:38:46;;;;;;;41.40;17.08;;;;;;;18.72;43.99;98863.13;5074477;28;20024;-76
2022/10/18 06:41:12;;;;;;;39.80;17.50;;;;;;;18.59;43.79;98843.31;5077829;28;20020;-75
2022/10/18 06:43:38;;;;;;;37.47;16.20;;;;;;;18.09;44.68;98836.09;5055349;28;20074;-76
2022/10/18 06:46:06;;;;;;;30.38;15.07;;;;;;;17.98;45.18;98841.44;5081875;28;20055;-76
2022/10/18 06:48:33;;;;;;;39.45;16.13;;;;;;;18.11;45.79;98839.59;5092331;28;20040;-76
2022/10/18 06:51:01;;;;;;;30.70;15.63;;;;;;;18.84;44.27;98840.50;5060251;28;20415;-75
2022/10/18 06:53:29;;;;;;;28.00;15.32;;;;;;;19.40;42.98;98832.66;5071882;28;20052;-76
2022/10/18 06:56:00;;;;;;;34.00;17.60;;;;;;;18.62;44.02;98807.84;5071527;28;20033;-76
2022/10/18 06:58:26;;;;;;;31.95;17.77;;;;;;;18.58;44.86;98814.44;5055012;28;20024;-75
2022/10/18 07:00:51;;;;;;;33.55;19.95;;;;;;;18.53;44.39;98808.53;5092095;28;20055;-75
2022/10/18 07:03:17;;;;;;;32.97;19.13;;;;;;;18.90;44.38;98812.06;5074541;28;20024;-76
2022/10/18 07:05:43;;;;;;;35.42;19.38;;;;;;;19.50;43.04;98822.81;5074858;28;20028;-77
2022/10/18 07:08:08;;;;;;;28.25;17.48;;;;;;;19.87;42.89;98824.34;5080008;28;20031;-76
2022/10/18 07:10:34;;;;;;;32.25;17.50;;;;;;;19.45;42.52;98793.31;5085126;28;20028;-75
2022/10/18 07:12:59;;;;;;;29.83;16.92;;;;;;;18.00;45.29;98779.91;5090285;28;20028;-76
2022/10/18 07:15:25;;;;;;;29.40;16.70;;;;;;;19.37;43.82;98825.59;5091614;28;20115;-75
2022/10/18 07:17:51;;;;;;;25.75;15.43;;;;;;;19.48;44.71;98808.50;5091361;28;20089;-76
2022/10/18 07:20:16;;;;;;;27.40;15.43;;;;;;;19.88;42.11;98806.22;5086077;28;20506;-76
2022/10/18 07:22:42;;;;;;;26.65;16.70;;;;;;;19.28;43.45;98787.44;5054633;28;20024;-75
2022/10/18 07:25:08;;;;;;;30.83;17.17;;;;;;;19.59;43.24;98804.94;5072260;28;20025;-76
2022/10/18 07:27:38;;;;;;;22.35;15.13;;;;;;;20.32;41.55;98799.97;5079688;28;20048;-76
2022/10/18 07:30:06;;;;;;;28.05;16.98;;;;;;;20.27;42.09;98784.00;5073528;28;20059;-76
2022/10/18 07:32:31;;;;;;;29.85;15.75;;;;;;;20.27;42.05;98781.28;5061268;28;20141;-76
2022/10/18 07:34:57;;;;;;;37.88;15.93;;;;;;;20.40;41.85;98781.16;5074367;28;20028;-76
2022/10/18 07:37:22;;;;;;;28.30;15.40;;;;;;;21.13;40.78;98781.34;5091061;28;20035;-76
2022/10/18 07:39:48;;;;;;;31.00;16.40;;;;;;;21.70;39.64;98775.44;5074098;28;20099;-76
2022/10/18 07:42:13;;;;;;;27.70;14.70;;;;;;;22.50;38.49;98781.00;5072726;28;20483;-76
2022/10/18 07:44:39;;;;;;;27.83;15.50;;;;;;;22.70;38.13;98776.50;5054308;28;20028;-76
2022/10/18 07:47:05;;;;;;;25.23;14.50;;;;;;;21.66;39.34;98746.75;5070468;28;20031;-76
2022/10/18 07:49:30;;;;;;;25.35;14.98;;;;;;;22.75;38.31;98777.78;5068123;28;20040;-76
2022/10/18 07:51:56;;;;;;;22.75;13.75;;;;;;;21.54;39.10;98736.94;5054102;28;20069;-75
2022/10/18 07:54:21;;;;;;;24.60;15.43;;;;;;;21.29;40.39;98731.88;5070710;28;20495;-76
2022/10/18 07:56:47;;;;;;;38.95;15.98;;;;;;;21.65;39.65;98739.59;5078999;28;20451;-76
2022/10/18 07:59:13;;;;;;;39.30;14.82;;;;;;;22.16;38.72;98734.09;5070896;28;20412;-76
2022/10/18 08:01:38;;;;;;;25.55;15.25;;;;;;;21.56;40.10;98722.16;5068783;28;20028;-75
2022/10/18 08:04:04;;;;;;;29.00;14.55;;;;;;;21.63;39.57;98725.22;5090643;28;20031;-77
2022/10/18 08:06:30;;;;;;;20.88;13.98;;;;;;;21.05;40.39;98719.38;5073727;28;20030;-76
2022/10/18 08:08:55;;;;;;;30.35;14.88;;;;;;;22.46;38.28;98730.44;5072998;28;20483;-76
2022/10/18 08:11:23;;;;;;;25.98;13.70;;;;;;;22.83;37.78;98728.81;5054039;28;20028;-76
2022/10/18 08:13:49;;;;;;;24.92;15.60;;;;;;;22.68;38.03;98714.72;5078460;28;20039;-76
2022/10/18 08:16:26;;;;;;;21.02;14.02;;;;;;;23.31;37.41;98720.63;5073497;28;20032;-76
2022/10/18 08:18:52;;;;;;;28.40;13.48;;;;;;;23.37;36.98;98710.97;5090261;28;20077;-77
2022/10/18 08:21:19;;;;;;;18.98;11.73;;;;;;;22.80;37.37;98690.91;5068359;28;20024;-77
2022/10/18 08:23:45;;;;;;;24.10;13.15;;;;;;;22.50;37.88;98691.00;5090209;28;20034;-75
2022/10/18 08:26:14;;;;;;;22.50;12.75;;;;;;;21.94;38.80;98674.34;5059650;28;20116;-76
2022/10/18 08:28:40;;;;;;;36.33;15.68;;;;;;;22.55;37.74;98683.22;5069754;28;20197;-76
2022/10/18 08:31:09;;;;;;;20.45;12.32;;;;;;;23.47;36.32;98690.00;5053154;28;20476;-76
2022/10/18 08:33:35;;;;;;;22.70;12.68;;;;;;;22.63;36.94;98656.13;5053179;28;20124;-75
2022/10/18 08:36:04;;;;;;;22.33;13.32;;;;;;;22.60;37.82;98678.22;5073166;28;20470;-75
2022/10/18 08:41:24;;;;;;;20.70;11.13;;;;;;;21.85;37.34;98621.53;5078848;28;20089;-76
2022/10/18 08:44:25;;;;;;;22.20;11.38;;;;;;;22.79;36.83;98670.09;5076977;28;20024;-78
2022/10/18 08:47:03;;;;;;;24.67;12.02;;;;;;;25.00;34.61;98689.19;5086537;28;20514;-75
2022/10/18 08:49:41;;;;;;;18.77;11.48;;;;;;;23.23;35.64;98616.69;5089849;28;20104;-75
2022/10/18 08:52:27;;;;;;;26.95;11.68;;;;;;;23.48;35.89;98645.28;5085521;28;20028;-76
2022/10/18 08:55:02;;;;;;;26.77;11.68;;;;;;;24.22;34.78;98648.84;5072787;28;20039;-76
2022/10/18 08:57:28;;;;;;;20.65;12.13;;;;;;;24.91;34.02;98657.28;5089746;28;20020;-77
2022/10/18 08:59:53;;;;;;;16.60;10.95;;;;;;;25.41;32.58;98642.94;5081140;28;20480;-75
2022/10/18 09:02:25;;;;;;;21.05;10.15;;;;;;;25.48;33.25;98644.00;5072751;28;20067;-76
2022/10/18 09:05:09;;;;;;;20.02;10.45;;;;;;;26.30;32.92;98653.38;5089522;28;20503;-77
2022/10/18 09:08:00;;;;;;;16.15;10.25;;;;;;;26.24;32.39;98632.09;5089596;28;20132;-78
2022/10/18 09:10:39;;;;;;;29.85;9.23;;;;;;;26.04;31.83;98618.78;5089294;28;20434;-76
2022/10/18 09:13:20;;;;;;;15.90;9.13;;;;;;;26.47;31.47;98628.72;5069532;28;20028;-76
2022/10/18 09:16:10;;;;;;;16.23;9.65;;;;;;;25.67;30.53;98580.75;5069435;28;20055;-78
2022/10/18 09:18:56;;;;;;;21.58;8.30;;;;;;;24.94;31.43;98582.19;5065408;28;20039;-76
2022/10/18 09:21:24;;;;;;;17.33;10.82;;;;;;;24.75;32.74;98586.78;5089577;28;20059;-77
2022/10/18 09:24:12;;;;;;;15.52;8.98;;;;;;;25.05;32.04;98592.84;5081707;28;20036;-77
2022/10/18 09:26:48;;;;;;;15.05;9.43;;;;;;;25.66;31.16;98587.25;5073834;28;20035;-77
2022/10/18 09:29:29;;;;;;;13.75;8.60;;;;;;;24.86;31.90;98576.63;5059396;28;20063;-77
2022/10/18 09:32:18;;;;;;;10.50;7.65;;;;;;;25.19;31.67;98579.47;5089101;28;20111;-76
2022/10/18 09:34:56;;;;;;;16.05;7.00;;;;;;;25.60;30.44;98571.47;5089280;28;20110;-78
2022/10/18 09:37:23;;;;;;;10.70;5.60;;;;;;;26.60;28.99;98576.94;5060192;28;20048;-78
2022/10/18 09:40:01;;;;;;;9.48;6.13;;;;;;;27.20;28.26;98578.28;5064820;28;20115;-79
2022/10/18 09:42:36;;;;;;;10.23;6.15;;;;;;;27.51;28.31;98566.56;5090953;28;20124;-76
2022/10/18 09:45:18;;;;;;;12.00;5.50;;;;;;;27.70;27.74;98550.53;5058234;28;20036;-77
2022/10/18 09:47:55;;;;;;;10.20;5.82;;;;;;;27.59;27.85;98550.06;5081838;28;20066;-77
2022/10/18 09:50:44;;;;;;;10.25;4.82;;;;;;;28.42;26.92;98554.81;5075218;28;20020;-78
2022/10/18 09:53:21;;;;;;;5.20;3.40;;;;;;;27.26;27.32;98511.63;5046433;28;20043;-79
2022/10/18 09:55:56;;;;;;;5.82;3.65;;;;;;;26.95;26.96;98509.84;5060432;28;20030;-78
2022/10/18 09:58:23;;;;;;;8.50;3.67;;;;;;;26.75;27.75;98509.31;5085836;28;20029;-77
2022/10/18 10:00:50;;;;;;;10.27;3.28;;;;;;;27.69;26.83;98523.19;5076310;28;20479;-78
2022/10/18 10:03:16;;;;;;;7.65;4.03;;;;;;;28.15;26.25;98514.03;5075870;28;20381;-78
2022/10/18 10:05:42;;;;;;;8.52;3.70;;;;;;;28.78;25.64;98501.84;5089418;28;20031;-78
2022/10/18 10:08:08;;;;;;;4.60;3.25;;;;;;;28.42;25.98;98491.47;5055836;28;20430;-77
2022/10/18 10:10:34;;;;;;;8.93;4.22;;;;;;;28.12;26.84;98484.09;5072533;28;20032;-78
2022/10/18 10:13:14;;;;;;;7.55;4.20;;;;;;;27.84;27.31;98472.72;5055520;28;20055;-79
2022/10/18 10:16:04;;;;;;;10.02;4.00;;;;;;;28.04;27.13;98475.03;5066880;28;20097;-79
2022/10/18 10:18:34;;;;;;;5.97;3.95;;;;;;;28.43;26.26;98464.78;5075032;28;20040;-77
2022/10/18 10:21:05;;;;;;;8.10;3.85;;;;;;;29.99;25.44;98497.72;5066950;28;20575;-77
2022/10/18 10:23:30;;;;;;;9.10;3.90;;;;;;;29.80;25.09;98466.06;5091004;28;20099;-77
2022/10/18 10:26:00;;;;;;;4.75;3.47;;;;;;;29.75;24.48;98457.47;5092657;28;20067;-78
2022/10/18 10:28:30;;;;;;;7.57;4.05;;;;;;;30.03;24.72;98454.88;5075443;28;20115;-78
2022/10/18 10:31:31;;;;;;;8.18;4.45;;;;;;;30.09;24.73;98448.56;5092474;28;20032;-79
2022/10/18 10:34:12;;;;;;;6.60;3.47;;;;;;;29.67;25.12;98442.94;5048932;28;20488;-79
2022/10/18 10:36:50;;;;;;;4.65;3.15;;;;;;;28.41;25.53;98412.66;5092544;28;20488;-79
2022/10/18 10:39:18;;;;;;;5.82;3.10;;;;;;;28.47;25.25;98420.19;5064690;28;20458;-77
2022/10/18 10:41:53;;;;;;;8.27;4.07;;;;;;;30.56;23.80;98431.41;5083831;28;20565;-77
2022/10/18 10:44:22;;;;;;;5.15;3.42;;;;;;;28.84;24.76;98407.44;5075160;28;20024;-76
2022/10/18 10:46:49;;;;;;;7.30;3.53;;;;;;;28.78;24.82;98397.16;5075090;28;20051;-78
2022/10/18 10:49:22;;;;;;;7.65;3.25;;;;;;;29.93;23.95;98410.19;5075208;28;20181;-78
2022/10/18 10:51:59;;;;;;;6.82;3.88;;;;;;;30.89;22.74;98413.16;5091984;28;20020;-78
2022/10/18 10:54:26;;;;;;;3.55;3.10;;;;;;;29.82;23.58;98389.47;5075071;28;20024;-78
2022/10/18 10:57:11;;;;;;;6.05;2.97;;;;;;;30.98;23.26;98405.59;5075506;28;20111;-77
2022/10/18 10:59:51;;;;;;;3.38;3.08;;;;;;;32.04;21.94;98405.06;5083299;28;20367;-78
2022/10/18 11:02:21;;;;;;;7.32;3.00;;;;;;;32.17;21.29;98385.69;5075085;28;20027;-78
2022/10/18 11:04:53;;;;;;;6.38;3.72;;;;;;;33.44;20.38;98389.81;5063778;28;20028;-79
2022/10/18 11:07:30;;;;;;;6.25;3.22;;;;;;;32.24;21.48;98375.44;5061738;28;20111;-78
2022/10/18 11:10:13;;;;;;;8.13;3.55;;;;;;;30.06;23.04;98355.97;5093160;28;20447;-77
2022/10/18 11:13:01;;;;;;;5.93;3.58;;;;;;;30.87;22.61;98360.00;5074658;28;20028;-77
2022/10/18 11:15:37;;;;;;;4.20;3.42;;;;;;;30.83;22.37;98355.09;5075409;28;20563;-77
2022/10/18 11:18:29;;;;;;;18.10;6.00;;;;;;;31.36;22.48;98359.00;5056144;28;20056;-80
2022/10/18 11:21:11;;;;;;;9.15;3.40;;;;;;;31.06;21.30;98352.94;5083058;28;20022;-78
2022/10/18 11:23:38;;;;;;;4.10;2.70;;;;;;;29.74;21.86;98317.84;5074498;28;20085;-79
2022/10/18 11:26:11;;;;;;;4.20;2.88;;;;;;;29.34;22.04;98327.59;5086920;28;20023;-77
2022/10/18 11:29:11;;;;;;;6.10;2.85;;;;;;;29.19;22.02;98307.44;5063337;28;20549;-78
2022/10/18 11:31:50;;;;;;;7.55;3.58;;;;;;;29.24;21.97;98310.50;5090828;28;20031;-77
2022/10/18 11:34:23;;;;;;;5.68;2.65;;;;;;;28.94;22.49;98306.94;5071051;28;20389;-78
2022/10/18 11:37:09;;;;;;;4.65;2.80;;;;;;;30.58;21.42;98311.38;5072896;28;20052;-78
2022/10/18 11:39:37;;;;;;;4.47;2.78;;;;;;;31.37;20.98;98314.56;5075652;28;20468;-78